Time;durP1;ratioP1;P1;durP2;ratioP2;P2;SDS_P1;SDS_P2;PMS_P1;PMS_P2;Temp;Humidity;BMP_temperature;BMP_pressure;BME280_temperature;BME280_humidity;BME280_pressure;Samples;Min_cycle;Max_cycle;Signal;HPM_P1;HPM_P2
2021/07/27 00:01:55;;;;;;;22.00;9.07;;;;;;;;;;5014732;28;20471;-68
2021/07/27 00:04:20;;;;;;;21.65;8.93;;;;;;;;;;5014385;28;20028;-68
2021/07/27 00:06:46;;;;;;;20.75;9.32;;;;;;;;;;5014523;28;20014;-68
2021/07/27 00:09:13;;;;;;;18.10;8.90;;;;;;;;;;5014895;28;20077;-68
2021/07/27 00:11:39;;;;;;;25.00;9.38;;;;;;;;;;5014726;28;20022;-68
2021/07/27 00:14:04;;;;;;;19.77;9.00;;;;;;;;;;5014360;28;20041;-68
2021/07/27 00:16:32;;;;;;;23.67;9.35;;;;;;;;;;5014263;28;20021;-68
2021/07/27 00:18:58;;;;;;;19.95;8.68;;;;;;;;;;5014528;28;20030;-68
2021/07/27 00:21:25;;;;;;;27.85;8.93;;;;;;;;;;5014277;28;20076;-68
2021/07/27 00:23:50;;;;;;;21.38;9.23;;;;;;;;;;5014555;28;20439;-68
2021/07/27 00:26:16;;;;;;;25.20;10.00;;;;;;;;;;5013931;28;20049;-68
2021/07/27 00:28:43;;;;;;;15.93;9.13;;;;;;;;;;5013831;28;20033;-68
2021/07/27 00:31:16;;;;;;;21.25;9.00;;;;;;;;;;5014242;28;20026;-68
2021/07/27 00:33:43;;;;;;;21.60;10.00;;;;;;;;;;5014234;28;20026;-68
2021/07/27 00:36:09;;;;;;;17.98;8.98;;;;;;;;;;5013864;28;20022;-68
2021/07/27 00:38:36;;;;;;;18.20;8.93;;;;;;;;;;5014067;28;20053;-68
2021/07/27 00:41:01;;;;;;;27.92;8.93;;;;;;;;;;5013873;28;20050;-68
2021/07/27 00:43:28;;;;;;;27.92;9.48;;;;;;;;;;5014148;28;20072;-68
2021/07/27 00:45:54;;;;;;;21.20;9.10;;;;;;;;;;5013980;28;20018;-68
2021/07/27 00:48:20;;;;;;;14.55;8.82;;;;;;;;;;5013659;28;20455;-68
2021/07/27 00:50:46;;;;;;;26.50;9.73;;;;;;;;;;5013719;28;20077;-68
2021/07/27 00:53:13;;;;;;;23.55;9.45;;;;;;;;;;5013968;28;20018;-68
2021/07/27 00:55:39;;;;;;;16.63;9.90;;;;;;;;;;4996200;28;20519;-68
2021/07/27 00:58:06;;;;;;;29.95;10.13;;;;;;;;;;5013615;28;20033;-68
2021/07/27 01:00:32;;;;;;;21.65;9.32;;;;;;;;;;5013531;28;20014;-68
2021/07/27 01:02:57;;;;;;;21.77;10.60;;;;;;;;;;5013793;28;20105;-68
2021/07/27 01:05:26;;;;;;;21.40;8.93;;;;;;;;;;5013758;28;20475;-68
2021/07/27 01:07:53;;;;;;;23.23;9.80;;;;;;;;;;5013853;28;20383;-68
2021/07/27 01:10:19;;;;;;;16.88;8.85;;;;;;;;;;5013402;28;20164;-68
2021/07/27 01:12:46;;;;;;;27.58;9.95;;;;;;;;;;4996047;28;20500;-68
2021/07/27 01:15:12;;;;;;;29.42;10.18;;;;;;;;;;4996022;28;20029;-68
2021/07/27 01:17:38;;;;;;;22.63;10.02;;;;;;;;;;5013306;28;20006;-67
2021/07/27 01:44:35;;;;;;;23.88;9.95;;;;;;;;;;5013415;28;20041;-68
2021/07/27 01:47:01;;;;;;;28.92;9.93;;;;;;;;;;5013021;28;20363;-67
2021/07/27 01:49:27;;;;;;;24.33;11.25;;;;;;;;;;5012965;28;20024;-68
2021/07/27 01:51:53;;;;;;;26.45;10.80;;;;;;;;;;5012910;28;20025;-70
2021/07/27 01:54:28;;;;;;;22.55;9.65;;;;;;;;;;5012603;28;20022;-68
2021/07/27 01:56:54;;;;;;;22.75;10.27;;;;;;;;;;4995186;28;20040;-68
2021/07/27 01:59:21;;;;;;;24.70;10.35;;;;;;;;;;5012850;28;20049;-68
2021/07/27 02:01:46;;;;;;;25.45;10.15;;;;;;;;;;5012736;28;20430;-68
2021/07/27 02:04:12;;;;;;;31.40;10.05;;;;;;;;;;5012686;28;20018;-68
2021/07/27 02:06:41;;;;;;;29.60;10.98;;;;;;;;;;5012828;28;20148;-68
2021/07/27 02:09:08;;;;;;;26.10;10.50;;;;;;;;;;5012758;28;20032;-68
2021/07/27 02:11:42;;;;;;;27.05;10.57;;;;;;;;;;5012802;28;20620;-68
2021/07/27 02:14:11;;;;;;;26.85;9.85;;;;;;;;;;5012480;28;20196;-68
2021/07/27 02:16:37;;;;;;;25.45;10.50;;;;;;;;;;5012682;28;20021;-68
2021/07/27 02:19:03;;;;;;;24.23;9.95;;;;;;;;;;5012733;28;20014;-68
2021/07/27 02:21:29;;;;;;;27.45;10.80;;;;;;;;;;5012933;28;20026;-68
2021/07/27 02:23:57;;;;;;;24.55;10.15;;;;;;;;;;5012568;28;20021;-68
2021/07/27 02:26:23;;;;;;;30.23;10.40;;;;;;;;;;5012342;28;20025;-68
2021/07/27 02:28:49;;;;;;;31.63;10.25;;;;;;;;;;5012473;28;20026;-67
2021/07/27 02:31:22;;;;;;;33.38;11.45;;;;;;;;;;5012961;28;20054;-68
2021/07/27 02:33:47;;;;;;;35.25;11.30;;;;;;;;;;5012449;28;20527;-68
2021/07/27 02:36:13;;;;;;;31.20;9.90;;;;;;;;;;5012296;28;20109;-68
2021/07/27 02:38:39;;;;;;;27.38;10.32;;;;;;;;;;5012543;28;20487;-68
2021/07/27 02:41:05;;;;;;;26.27;11.60;;;;;;;;;;5012349;28;20081;-68
2021/07/27 02:43:31;;;;;;;24.02;10.75;;;;;;;;;;5012353;28;20018;-68
2021/07/27 02:45:57;;;;;;;31.88;10.82;;;;;;;;;;5012367;28;20041;-68
2021/07/27 02:48:23;;;;;;;26.00;11.43;;;;;;;;;;5012222;28;20010;-68
2021/07/27 02:50:59;;;;;;;23.45;10.30;;;;;;;;;;5012510;28;20017;-68
2021/07/27 02:53:29;;;;;;;21.58;10.23;;;;;;;;;;5016230;28;20022;-68
2021/07/27 02:55:56;;;;;;;25.38;11.15;;;;;;;;;;5015969;28;20038;-68
2021/07/27 02:58:30;;;;;;;26.88;11.60;;;;;;;;;;5015682;28;20053;-69
2021/07/27 03:00:56;;;;;;;22.77;10.15;;;;;;;;;;4998283;28;20014;-68
2021/07/27 03:03:21;;;;;;;29.70;11.70;;;;;;;;;;5015967;28;20014;-68
2021/07/27 03:05:48;;;;;;;27.52;11.93;;;;;;;;;;5015952;28;20029;-68
2021/07/27 03:08:20;;;;;;;22.58;10.80;;;;;;;;;;5015612;28;20030;-68
2021/07/27 03:10:46;;;;;;;23.52;11.20;;;;;;;;;;5015694;28;20113;-68
2021/07/27 03:13:12;;;;;;;26.73;11.40;;;;;;;;;;5015948;28;20097;-68
2021/07/27 03:15:39;;;;;;;23.95;10.25;;;;;;;;;;5015698;28;20121;-68
2021/07/27 03:18:04;;;;;;;29.45;10.80;;;;;;;;;;5015887;28;20073;-68
2021/07/27 03:20:32;;;;;;;24.90;10.57;;;;;;;;;;5015477;28;20025;-68
2021/07/27 03:22:58;;;;;;;24.55;11.43;;;;;;;;;;5015546;28;20010;-68
2021/07/27 03:25:25;;;;;;;21.85;10.10;;;;;;;;;;5015335;28;20018;-68
2021/07/27 03:27:53;;;;;;;20.77;11.38;;;;;;;;;;5015545;28;20028;-69
2021/07/27 03:30:20;;;;;;;27.23;11.80;;;;;;;;;;5015376;28;20018;-68
2021/07/27 03:32:46;;;;;;;28.20;11.20;;;;;;;;;;5015420;28;20041;-68
2021/07/27 03:35:18;;;;;;;25.25;10.45;;;;;;;;;;5015341;28;20483;-68
2021/07/27 03:37:45;;;;;;;20.83;10.50;;;;;;;;;;5015315;28;20458;-67
2021/07/27 03:40:11;;;;;;;25.63;10.77;;;;;;;;;;5014782;28;20085;-68
2021/07/27 03:42:37;;;;;;;29.48;11.15;;;;;;;;;;5015319;28;20132;-68
2021/07/27 03:45:03;;;;;;;37.92;13.32;;;;;;;;;;5015123;28;20483;-68
2021/07/27 03:47:29;;;;;;;25.65;10.75;;;;;;;;;;5015092;28;20402;-68
2021/07/27 03:49:55;;;;;;;30.98;11.60;;;;;;;;;;5014918;28;20025;-68
2021/07/27 03:52:22;;;;;;;24.10;10.88;;;;;;;;;;4997234;28;20033;-68
2021/07/27 03:54:48;;;;;;;27.05;11.18;;;;;;;;;;5014854;28;20116;-68
2021/07/27 03:57:16;;;;;;;21.75;10.82;;;;;;;;;;5014945;28;20025;-68
2021/07/27 03:59:41;;;;;;;23.27;11.30;;;;;;;;;;5014913;28;20013;-68
2021/07/27 04:02:07;;;;;;;21.98;10.02;;;;;;;;;;5014790;28;20507;-68
2021/07/27 04:04:36;;;;;;;26.75;10.95;;;;;;;;;;5013444;28;20082;-68
2021/07/27 04:07:03;;;;;;;17.98;9.07;;;;;;;;;;5014881;28;20065;-68
2021/07/27 04:09:29;;;;;;;28.95;12.82;;;;;;;;;;5014634;28;20434;-68
2021/07/27 04:11:54;;;;;;;24.90;11.30;;;;;;;;;;5014691;28;20101;-68
2021/07/27 04:14:20;;;;;;;23.63;10.23;;;;;;;;;;5014300;28;20475;-68
2021/07/27 04:16:46;;;;;;;25.70;12.02;;;;;;;;;;5014834;28;20029;-68
2021/07/27 04:19:12;;;;;;;25.65;11.02;;;;;;;;;;5014598;28;20018;-68
2021/07/27 04:21:40;;;;;;;31.10;11.93;;;;;;;;;;5014501;28;20474;-68
2021/07/27 04:24:06;;;;;;;20.23;10.60;;;;;;;;;;4996895;28;20109;-68
2021/07/27 04:26:32;;;;;;;21.85;11.20;;;;;;;;;;5014135;28;20100;-68
2021/07/27 04:28:58;;;;;;;20.33;11.15;;;;;;;;;;5014315;28;20010;-68
2021/07/27 04:31:24;;;;;;;22.35;11.38;;;;;;;;;;5014336;28;20018;-69
2021/07/27 04:33:51;;;;;;;32.40;15.00;;;;;;;;;;5014038;28;20561;-68
2021/07/27 04:36:16;;;;;;;37.20;14.07;;;;;;;;;;5013959;28;20026;-69
2021/07/27 04:38:42;;;;;;;27.75;12.93;;;;;;;;;;5013945;28;20020;-69
2021/07/27 04:41:11;;;;;;;36.40;12.00;;;;;;;;;;5013986;28;20050;-69
2021/07/27 04:43:36;;;;;;;32.60;11.98;;;;;;;;;;5014036;28;20105;-68
2021/07/27 04:46:03;;;;;;;33.97;12.32;;;;;;;;;;5013882;28;20614;-68
2021/07/27 04:48:29;;;;;;;28.95;11.70;;;;;;;;;;5013621;28;20112;-68
2021/07/27 04:50:55;;;;;;;22.73;11.00;;;;;;;;;;5013767;28;20105;-68
2021/07/27 04:53:23;;;;;;;26.38;11.00;;;;;;;;;;4996235;28;20406;-68
2021/07/27 04:55:49;;;;;;;27.20;11.10;;;;;;;;;;5013729;28;20495;-69
2021/07/27 04:58:15;;;;;;;30.38;11.32;;;;;;;;;;5013612;28;20026;-68
2021/07/27 05:00:41;;;;;;;32.50;12.18;;;;;;;;;;5013693;28;20048;-69
2021/07/27 05:03:07;;;;;;;28.98;11.07;;;;;;;;;;5013752;28;20026;-68
2021/07/27 05:05:34;;;;;;;25.83;10.10;;;;;;;;;;5013583;28;20040;-68
2021/07/27 05:08:00;;;;;;;26.88;10.13;;;;;;;;;;5013488;28;20076;-68
2021/07/27 05:10:25;;;;;;;25.48;11.63;;;;;;;;;;5013264;28;20018;-68
2021/07/27 05:12:51;;;;;;;27.40;10.73;;;;;;;;;;5013388;28;20501;-69
2021/07/27 05:15:17;;;;;;;25.70;10.10;;;;;;;;;;5013037;28;20021;-69
2021/07/27 05:17:44;;;;;;;21.33;9.95;;;;;;;;;;5013359;28;20018;-69
2021/07/27 05:20:10;;;;;;;23.60;9.18;;;;;;;;;;5013183;28;20049;-68
2021/07/27 05:22:36;;;;;;;22.02;9.05;;;;;;;;;;5013253;28;20609;-68
2021/07/27 05:25:02;;;;;;;35.50;10.43;;;;;;;;;;5013187;28;20022;-69
2021/07/27 05:27:27;;;;;;;19.83;8.73;;;;;;;;;;5013361;28;20010;-68
2021/07/27 05:29:53;;;;;;;19.75;9.13;;;;;;;;;;5013137;28;20018;-69
2021/07/27 05:32:19;;;;;;;16.33;8.13;;;;;;;;;;4984046;28;20021;-68
2021/07/27 05:34:44;;;;;;;18.67;8.02;;;;;;;;;;4993292;28;20022;-69
2021/07/27 05:37:10;;;;;;;21.08;8.43;;;;;;;;;;4993341;28;20032;-69
2021/07/27 05:39:35;;;;;;;23.70;8.77;;;;;;;;;;4993929;28;20034;-69
2021/07/27 05:42:02;;;;;;;23.30;8.50;;;;;;;;;;5013087;28;20026;-69
2021/07/27 05:44:28;;;;;;;16.48;7.07;;;;;;;;;;5011300;28;20014;-71
2021/07/27 05:46:54;;;;;;;27.58;9.80;;;;;;;;;;5001750;28;20052;-69
2021/07/27 05:49:20;;;;;;;36.97;9.20;;;;;;;;;;5011325;28;20026;-68
2021/07/27 05:51:46;;;;;;;23.63;7.72;;;;;;;;;;5010900;28;20022;-67
2021/07/27 05:54:12;;;;;;;15.07;7.78;;;;;;;;;;5010652;28;20493;-68
2021/07/27 05:56:37;;;;;;;22.55;7.45;;;;;;;;;;5011480;28;20017;-68
2021/07/27 05:59:02;;;;;;;21.58;7.47;;;;;;;;;;5011847;28;20033;-69
2021/07/27 06:01:28;;;;;;;15.27;6.95;;;;;;;;;;5011412;28;20089;-68
2021/07/27 06:03:53;;;;;;;18.50;7.18;;;;;;;;;;5010733;28;20075;-68
2021/07/27 06:06:19;;;;;;;25.40;8.60;;;;;;;;;;5009671;28;20370;-68
2021/07/27 06:08:45;;;;;;;16.85;6.97;;;;;;;;;;5005270;28;20080;-67
2021/07/27 06:11:13;;;;;;;32.50;7.80;;;;;;;;;;5010760;28;20028;-67
2021/07/27 06:13:38;;;;;;;25.33;7.47;;;;;;;;;;5005262;28;20455;-68
2021/07/27 06:16:04;;;;;;;18.38;7.00;;;;;;;;;;5011274;28;20030;-69
2021/07/27 06:18:30;;;;;;;14.35;6.45;;;;;;;;;;5002371;28;20014;-68
2021/07/27 06:20:55;;;;;;;16.45;6.30;;;;;;;;;;5010271;28;20030;-68
2021/07/27 06:23:21;;;;;;;19.45;6.60;;;;;;;;;;5011143;28;20473;-68
2021/07/27 06:25:46;;;;;;;20.40;7.03;;;;;;;;;;5010226;28;20018;-68
2021/07/27 06:28:11;;;;;;;17.52;6.28;;;;;;;;;;5013647;28;20521;-69
2021/07/27 06:30:38;;;;;;;24.42;7.50;;;;;;;;;;5014690;28;20010;-68
2021/07/27 06:33:03;;;;;;;19.45;7.43;;;;;;;;;;5014608;28;20037;-69
2021/07/27 06:35:29;;;;;;;20.70;6.72;;;;;;;;;;4988755;28;20042;-69
2021/07/27 06:37:55;;;;;;;26.00;6.68;;;;;;;;;;5013039;28;20022;-70
2021/07/27 06:40:20;;;;;;;14.25;6.00;;;;;;;;;;5013121;28;20502;-72
2021/07/27 06:42:47;;;;;;;13.32;6.43;;;;;;;;;;5014271;28;20018;-71
2021/07/27 06:45:12;;;;;;;15.85;6.07;;;;;;;;;;5014650;28;20010;-70
2021/07/27 06:47:38;;;;;;;18.90;6.70;;;;;;;;;;5013889;28;20041;-69
2021/07/27 06:50:03;;;;;;;21.27;6.43;;;;;;;;;;5013367;28;20395;-70
2021/07/27 06:52:29;;;;;;;14.70;5.57;;;;;;;;;;5013474;28;20541;-71
2021/07/27 06:54:54;;;;;;;19.08;5.63;;;;;;;;;;5013769;28;20553;-71
2021/07/27 06:57:20;;;;;;;19.20;6.88;;;;;;;;;;5013134;28;20022;-71
2021/07/27 06:59:46;;;;;;;19.13;6.68;;;;;;;;;;5013689;28;20014;-69
2021/07/27 07:02:11;;;;;;;14.55;5.25;;;;;;;;;;5012953;28;20526;-69
2021/07/27 07:04:37;;;;;;;20.40;6.97;;;;;;;;;;5013873;28;20022;-69
2021/07/27 07:07:02;;;;;;;12.25;5.40;;;;;;;;;;5012562;28;20025;-70
2021/07/27 07:09:28;;;;;;;15.15;5.57;;;;;;;;;;5013767;28;20030;-70
2021/07/27 07:11:54;;;;;;;15.85;5.93;;;;;;;;;;5013937;28;20014;-69
2021/07/27 07:14:20;;;;;;;13.50;6.00;;;;;;;;;;5012059;28;20030;-70
2021/07/27 07:16:45;;;;;;;17.15;5.72;;;;;;;;;;5014379;28;20514;-69
2021/07/27 07:19:10;;;;;;;24.50;6.10;;;;;;;;;;5014619;28;20026;-71
2021/07/27 07:21:36;;;;;;;15.75;5.75;;;;;;;;;;5011900;28;20017;-71
2021/07/27 07:24:02;;;;;;;14.15;5.85;;;;;;;;;;5013583;28;20029;-70
2021/07/27 07:26:27;;;;;;;20.58;5.97;;;;;;;;;;5013337;28;20045;-70
2021/07/27 07:28:53;;;;;;;14.80;5.35;;;;;;;;;;5013484;28;20018;-71
2021/07/27 07:31:19;;;;;;;15.60;4.72;;;;;;;;;;5009246;28;20022;-69
2021/07/27 07:33:46;;;;;;;15.90;5.45;;;;;;;;;;5013578;28;20014;-70
2021/07/27 07:36:13;;;;;;;19.63;5.90;;;;;;;;;;5011998;28;20065;-71
2021/07/27 07:38:40;;;;;;;13.43;4.43;;;;;;;;;;5013293;28;20018;-71
2021/07/27 07:41:07;;;;;;;15.38;5.75;;;;;;;;;;5012860;28;20037;-70
2021/07/27 07:43:33;;;;;;;13.68;5.32;;;;;;;;;;5012335;28;20021;-69
2021/07/27 07:45:59;;;;;;;15.38;5.60;;;;;;;;;;5020162;28;20093;-70
2021/07/27 07:48:24;;;;;;;14.13;6.07;;;;;;;;;;5014981;28;20105;-68
2021/07/27 07:50:50;;;;;;;15.98;5.45;;;;;;;;;;5013170;28;20423;-70
2021/07/27 07:53:16;;;;;;;18.10;5.32;;;;;;;;;;5011904;28;20010;-72
2021/07/27 07:55:42;;;;;;;18.10;5.95;;;;;;;;;;5010901;28;20475;-71
2021/07/27 07:58:07;;;;;;;16.42;5.85;;;;;;;;;;4994496;28;20034;-72
2021/07/27 08:00:33;;;;;;;19.20;5.72;;;;;;;;;;4994327;28;20021;-73
2021/07/27 08:03:01;;;;;;;23.42;5.95;;;;;;;;;;4992133;28;20040;-73
2021/07/27 08:05:28;;;;;;;16.50;5.30;;;;;;;;;;4994458;28;20022;-72
2021/07/27 08:07:54;;;;;;;13.63;5.38;;;;;;;;;;5013146;28;20024;-70
2021/07/27 08:10:19;;;;;;;13.48;5.70;;;;;;;;;;5012951;28;20479;-71
2021/07/27 08:12:46;;;;;;;22.95;5.95;;;;;;;;;;5011700;28;20088;-66
2021/07/27 08:15:12;;;;;;;14.45;5.35;;;;;;;;;;5012673;28;20036;-67
2021/07/27 08:17:37;;;;;;;17.13;5.10;;;;;;;;;;5012602;28;20010;-66
2021/07/27 08:20:03;;;;;;;18.67;5.50;;;;;;;;;;5012159;28;20097;-65
2021/07/27 08:22:29;;;;;;;26.80;5.50;;;;;;;;;;5012098;28;20141;-65
2021/07/27 08:24:54;;;;;;;15.25;5.13;;;;;;;;;;5012783;28;20558;-66
2021/07/27 08:27:19;;;;;;;19.00;5.28;;;;;;;;;;5011920;28;20068;-65
2021/07/27 08:29:45;;;;;;;19.30;5.38;;;;;;;;;;5012049;28;20124;-71
2021/07/27 08:32:10;;;;;;;15.63;5.28;;;;;;;;;;4994932;28;20386;-71
2021/07/27 08:34:37;;;;;;;13.25;5.28;;;;;;;;;;5011305;28;20037;-69
2021/07/27 08:37:05;;;;;;;18.10;4.60;;;;;;;;;;4994897;28;20482;-71
2021/07/27 08:39:30;;;;;;;11.15;4.22;;;;;;;;;;5010609;28;20120;-67
2021/07/27 08:42:02;;;;;;;19.05;4.78;;;;;;;;;;4993506;28;20104;-65
2021/07/27 08:44:29;;;;;;;15.40;4.50;;;;;;;;;;5005877;28;20046;-67
2021/07/27 08:46:56;;;;;;;17.60;4.38;;;;;;;;;;5006665;28;20017;-66
2021/07/27 08:49:21;;;;;;;14.90;5.10;;;;;;;;;;5010339;28;20080;-72
2021/07/27 08:51:47;;;;;;;17.83;4.78;;;;;;;;;;5010954;28;20022;-72
2021/07/27 08:54:16;;;;;;;16.38;4.68;;;;;;;;;;4992862;28;20495;-70
2021/07/27 08:56:44;;;;;;;16.13;5.35;;;;;;;;;;5011335;28;20479;-72
2021/07/27 08:59:11;;;;;;;14.48;4.63;;;;;;;;;;5011586;28;20025;-69
2021/07/27 09:01:36;;;;;;;26.23;7.28;;;;;;;;;;5011690;28;20057;-71
2021/07/27 09:04:02;;;;;;;18.27;5.20;;;;;;;;;;5010595;28;20061;-71
2021/07/27 09:06:27;;;;;;;19.52;5.35;;;;;;;;;;5012038;28;20037;-71
2021/07/27 09:09:11;;;;;;;14.07;4.88;;;;;;;;;;5010256;28;20029;-71
2021/07/27 09:11:49;;;;;;;25.73;6.15;;;;;;;;;;5005041;28;20033;-70
2021/07/27 09:14:15;;;;;;;21.60;6.18;;;;;;;;;;5007014;28;20384;-69
2021/07/27 09:16:44;;;;;;;20.33;5.45;;;;;;;;;;5010660;28;20108;-69
2021/07/27 09:19:10;;;;;;;24.55;6.00;;;;;;;;;;4993553;28;20026;-69
2021/07/27 09:21:35;;;;;;;16.88;5.22;;;;;;;;;;4988112;28;20485;-70
2021/07/27 09:24:01;;;;;;;20.85;5.10;;;;;;;;;;5000542;28;20045;-73
2021/07/27 09:26:26;;;;;;;14.55;3.92;;;;;;;;;;5001812;28;20014;-72
2021/07/27 09:29:00;;;;;;;17.67;4.80;;;;;;;;;;4992014;28;20084;-73
2021/07/27 09:31:26;;;;;;;15.38;4.63;;;;;;;;;;4974950;28;20023;-72
2021/07/27 09:33:51;;;;;;;12.57;4.18;;;;;;;;;;4994548;28;20034;-72
2021/07/27 09:36:22;;;;;;;19.40;4.93;;;;;;;;;;5002796;28;20026;-72
2021/07/27 09:38:57;;;;;;;12.23;4.75;;;;;;;;;;5011957;28;20025;-72
2021/07/27 09:41:26;;;;;;;16.38;4.93;;;;;;;;;;4963686;28;1411405;-71
2021/07/27 09:43:52;;;;;;;19.92;4.75;;;;;;;;;;5005201;28;20126;-69
2021/07/27 09:46:18;;;;;;;11.52;4.15;;;;;;;;;;5004879;28;20030;-70
2021/07/27 09:48:43;;;;;;;16.35;5.07;;;;;;;;;;5008699;28;20018;-68
2021/07/27 09:51:09;;;;;;;18.52;4.63;;;;;;;;;;5009145;28;20498;-70
2021/07/27 09:53:35;;;;;;;19.90;4.93;;;;;;;;;;5010728;28;20022;-69
2021/07/27 09:56:03;;;;;;;22.52;5.25;;;;;;;;;;4990418;28;20157;-67
2021/07/27 09:58:28;;;;;;;18.80;4.60;;;;;;;;;;5010972;28;20029;-67
2021/07/27 10:01:01;;;;;;;18.67;4.45;;;;;;;;;;5011113;28;20018;-66
2021/07/27 10:03:28;;;;;;;14.43;5.05;;;;;;;;;;5011778;28;20010;-66
2021/07/27 10:05:55;;;;;;;20.80;4.63;;;;;;;;;;4992464;28;20034;-67
2021/07/27 10:08:39;;;;;;;16.70;4.22;;;;;;;;;;5000493;28;20502;-66
2021/07/27 10:11:11;;;;;;;20.35;4.57;;;;;;;;;;5000813;28;20029;-67
2021/07/27 10:13:40;;;;;;;13.10;4.57;;;;;;;;;;5005523;28;20056;-67
2021/07/27 10:16:05;;;;;;;18.50;4.80;;;;;;;;;;5001744;28;20026;-67
2021/07/27 10:18:32;;;;;;;20.20;5.43;;;;;;;;;;4982625;28;20445;-67
2021/07/27 10:21:17;;;;;;;30.27;5.47;;;;;;;;;;5011594;28;20460;-67
2021/07/27 10:23:43;;;;;;;16.98;4.95;;;;;;;;;;4994153;28;20151;-67
2021/07/27 10:26:08;;;;;;;34.28;6.65;;;;;;;;;;4993597;28;20017;-67
2021/07/27 10:28:51;;;;;;;35.92;6.40;;;;;;;;;;4990791;28;20026;-68
2021/07/27 10:31:17;;;;;;;16.67;5.22;;;;;;;;;;5007326;28;20505;-68
2021/07/27 10:33:51;;;;;;;25.77;5.93;;;;;;;;;;5010563;28;20029;-66
2021/07/27 10:36:24;;;;;;;20.83;6.10;;;;;;;;;;5010840;28;20079;-68
2021/07/27 10:38:49;;;;;;;19.58;5.38;;;;;;;;;;5010111;28;20022;-68
2021/07/27 10:41:16;;;;;;;23.92;6.47;;;;;;;;;;5008480;28;20042;-68
2021/07/27 10:43:44;;;;;;;17.23;5.00;;;;;;;;;;5006613;28;20049;-66
2021/07/27 10:46:11;;;;;;;23.90;5.70;;;;;;;;;;5008861;28;20113;-67
2021/07/27 10:48:37;;;;;;;22.95;6.65;;;;;;;;;;5003042;28;20379;-67
2021/07/27 10:51:03;;;;;;;17.67;4.90;;;;;;;;;;4992376;28;20161;-67
2021/07/27 10:53:31;;;;;;;29.55;6.88;;;;;;;;;;4988066;28;20501;-67
2021/07/27 10:55:59;;;;;;;18.65;5.55;;;;;;;;;;5007845;28;20026;-66
2021/07/27 10:58:25;;;;;;;20.30;5.40;;;;;;;;;;5010714;28;20467;-66
2021/07/27 11:00:51;;;;;;;24.77;5.32;;;;;;;;;;5010894;28;20021;-65
2021/07/27 11:03:25;;;;;;;18.83;5.32;;;;;;;;;;5009851;28;20022;-67
2021/07/27 11:05:58;;;;;;;25.30;4.75;;;;;;;;;;5008995;28;20471;-66
2021/07/27 11:08:24;;;;;;;17.17;5.28;;;;;;;;;;5002920;28;20538;-64
2021/07/27 11:10:49;;;;;;;24.17;5.85;;;;;;;;;;5007795;28;20122;-65
2021/07/27 11:13:15;;;;;;;17.33;5.28;;;;;;;;;;5013020;28;20068;-66
2021/07/27 11:15:41;;;;;;;16.65;4.78;;;;;;;;;;5013968;28;20128;-66
2021/07/27 11:18:06;;;;;;;18.67;4.43;;;;;;;;;;5013923;28;20489;-66
2021/07/27 11:20:33;;;;;;;16.17;4.93;;;;;;;;;;5012497;28;20026;-67
2021/07/27 11:23:00;;;;;;;18.73;5.40;;;;;;;;;;5012996;28;20028;-67
2021/07/27 11:25:28;;;;;;;20.73;5.35;;;;;;;;;;4995446;28;20029;-67
2021/07/27 11:27:54;;;;;;;15.90;4.40;;;;;;;;;;5014823;28;20437;-67
2021/07/27 11:30:20;;;;;;;33.13;6.22;;;;;;;;;;5012818;28;20042;-67
2021/07/27 11:32:47;;;;;;;21.50;5.78;;;;;;;;;;5012229;28;20056;-67
2021/07/27 11:35:16;;;;;;;22.77;4.95;;;;;;;;;;5013096;28;20038;-67
2021/07/27 11:37:43;;;;;;;18.27;4.68;;;;;;;;;;5011357;28;20055;-68
2021/07/27 11:40:21;;;;;;;17.88;5.32;;;;;;;;;;4998636;28;20072;-70
2021/07/27 11:42:58;;;;;;;18.35;5.43;;;;;;;;;;5009207;28;20029;-69
2021/07/27 11:45:25;;;;;;;19.20;4.63;;;;;;;;;;5013093;28;20060;-68
2021/07/27 11:47:50;;;;;;;28.20;5.97;;;;;;;;;;4996096;28;20061;-68
2021/07/27 11:50:23;;;;;;;25.23;5.55;;;;;;;;;;5014221;28;20045;-68
2021/07/27 11:52:54;;;;;;;22.17;5.40;;;;;;;;;;4996826;28;20022;-70
2021/07/27 11:55:27;;;;;;;22.35;5.47;;;;;;;;;;5013434;28;20491;-68
2021/07/27 11:57:52;;;;;;;16.63;5.05;;;;;;;;;;5014276;28;20544;-69
2021/07/27 12:00:18;;;;;;;15.65;5.18;;;;;;;;;;5014116;28;20022;-70
2021/07/27 12:02:44;;;;;;;22.88;4.63;;;;;;;;;;5012713;28;20136;-70
2021/07/27 12:05:10;;;;;;;16.23;4.57;;;;;;;;;;5013941;28;20104;-69
2021/07/27 12:07:38;;;;;;;17.75;5.20;;;;;;;;;;5014011;28;20078;-69
2021/07/27 12:10:05;;;;;;;13.70;4.50;;;;;;;;;;5013524;28;20096;-69
2021/07/27 12:12:30;;;;;;;17.33;4.63;;;;;;;;;;5013553;28;20026;-68
2021/07/27 12:14:56;;;;;;;26.70;5.13;;;;;;;;;;5013625;28;20033;-70
2021/07/27 12:17:22;;;;;;;21.17;4.53;;;;;;;;;;5013371;28;20043;-70
2021/07/27 12:19:49;;;;;;;19.20;4.68;;;;;;;;;;5013927;28;20108;-69
2021/07/27 12:22:14;;;;;;;14.57;4.57;;;;;;;;;;5013598;28;20033;-71
2021/07/27 12:24:40;;;;;;;19.85;4.43;;;;;;;;;;5012000;28;20641;-70
2021/07/27 12:27:05;;;;;;;21.45;5.13;;;;;;;;;;5013827;28;20030;-69
2021/07/27 12:29:31;;;;;;;19.33;6.65;;;;;;;;;;5013451;28;20128;-69
2021/07/27 12:31:56;;;;;;;17.13;4.70;;;;;;;;;;5013408;28;20125;-69
2021/07/27 12:34:22;;;;;;;20.92;5.47;;;;;;;;;;4995262;28;20022;-68
2021/07/27 12:36:48;;;;;;;16.90;4.78;;;;;;;;;;5013753;28;20060;-68
2021/07/27 12:39:13;;;;;;;13.05;3.78;;;;;;;;;;5012374;28;20022;-69
2021/07/27 12:41:38;;;;;;;17.35;4.32;;;;;;;;;;5013070;28;20093;-70
2021/07/27 12:44:04;;;;;;;13.52;4.28;;;;;;;;;;4995837;28;20021;-71
2021/07/27 12:46:32;;;;;;;17.23;4.65;;;;;;;;;;5012729;28;20021;-71
2021/07/27 12:48:57;;;;;;;11.57;3.70;;;;;;;;;;5013583;28;20053;-69
2021/07/27 12:51:23;;;;;;;25.38;4.65;;;;;;;;;;5013158;28;20049;-69
2021/07/27 12:53:48;;;;;;;15.95;4.18;;;;;;;;;;4994979;28;20022;-69
2021/07/27 12:56:14;;;;;;;19.10;5.55;;;;;;;;;;5012800;28;20390;-70
2021/07/27 12:58:40;;;;;;;27.85;4.70;;;;;;;;;;4995274;28;20021;-70
2021/07/27 13:01:05;;;;;;;17.70;4.70;;;;;;;;;;5012661;28;20493;-69
2021/07/27 13:03:30;;;;;;;20.90;3.90;;;;;;;;;;5012565;28;20418;-69
2021/07/27 13:05:56;;;;;;;28.20;5.18;;;;;;;;;;4994222;28;20029;-67
2021/07/27 13:08:21;;;;;;;26.15;4.68;;;;;;;;;;5012782;28;20013;-69
2021/07/27 13:10:50;;;;;;;20.85;5.93;;;;;;;;;;5012042;28;20014;-69
2021/07/27 13:13:16;;;;;;;17.30;4.78;;;;;;;;;;5012452;28;20022;-70
2021/07/27 13:15:41;;;;;;;26.98;5.70;;;;;;;;;;5010886;28;20040;-71
2021/07/27 13:18:07;;;;;;;14.70;4.75;;;;;;;;;;5010469;28;20022;-70
2021/07/27 13:20:32;;;;;;;23.40;4.40;;;;;;;;;;5009631;28;20034;-70
2021/07/27 13:22:58;;;;;;;25.08;5.50;;;;;;;;;;5012139;28;20037;-72
2021/07/27 13:25:23;;;;;;;26.58;5.63;;;;;;;;;;5011929;28;20021;-74
2021/07/27 13:27:48;;;;;;;19.50;5.22;;;;;;;;;;5011973;28;20076;-71
2021/07/27 13:30:14;;;;;;;26.08;5.32;;;;;;;;;;5010238;28;20059;-72
2021/07/27 13:32:40;;;;;;;20.77;4.68;;;;;;;;;;5008847;28;20515;-73
2021/07/27 13:35:06;;;;;;;19.52;5.10;;;;;;;;;;5010537;28;20029;-67
2021/07/27 13:37:31;;;;;;;35.60;4.95;;;;;;;;;;5011207;28;20393;-67
2021/07/27 13:39:57;;;;;;;20.77;5.15;;;;;;;;;;5011714;28;20050;-67
2021/07/27 13:42:22;;;;;;;29.10;5.65;;;;;;;;;;5008401;28;20881;-69
2021/07/27 13:44:48;;;;;;;151.80;12.15;;;;;;;;;;5011287;28;20014;-69
2021/07/27 13:47:15;;;;;;;26.25;5.03;;;;;;;;;;5011356;28;20521;-69
2021/07/27 13:49:40;;;;;;;21.08;4.60;;;;;;;;;;4998877;28;20018;-69
2021/07/27 13:52:10;;;;;;;23.55;5.45;;;;;;;;;;5011631;28;20018;-69
2021/07/27 13:54:36;;;;;;;29.30;6.22;;;;;;;;;;5005920;28;20129;-67
2021/07/27 13:57:04;;;;;;;23.05;5.40;;;;;;;;;;5014734;28;20022;-66
2021/07/27 13:59:30;;;;;;;26.98;4.95;;;;;;;;;;5001600;28;20029;-66
2021/07/27 14:01:55;;;;;;;20.15;5.05;;;;;;;;;;5012004;28;20485;-67
2021/07/27 14:04:21;;;;;;;23.02;4.97;;;;;;;;;;5009738;28;20018;-67
2021/07/27 14:06:46;;;;;;;26.85;6.18;;;;;;;;;;5010764;28;20025;-69
2021/07/27 14:09:13;;;;;;;30.40;5.70;;;;;;;;;;5010838;28;20099;-69
2021/07/27 14:11:39;;;;;;;18.02;4.20;;;;;;;;;;5009985;28;20029;-68
2021/07/27 14:14:05;;;;;;;31.13;5.50;;;;;;;;;;5011122;28;20030;-70
2021/07/27 14:16:30;;;;;;;29.38;4.85;;;;;;;;;;5010286;28;20025;-71
2021/07/27 14:18:56;;;;;;;23.80;5.18;;;;;;;;;;5011540;28;20045;-66
2021/07/27 14:21:22;;;;;;;26.42;5.47;;;;;;;;;;5010733;28;20116;-69
2021/07/27 14:23:48;;;;;;;22.35;4.88;;;;;;;;;;5010954;28;20014;-71
2021/07/27 14:26:13;;;;;;;22.27;5.10;;;;;;;;;;4993479;28;20462;-67
2021/07/27 14:28:39;;;;;;;21.45;4.85;;;;;;;;;;4973471;28;20071;-71
2021/07/27 14:31:05;;;;;;;22.23;4.88;;;;;;;;;;5006687;28;20080;-71
2021/07/27 14:33:30;;;;;;;33.13;5.82;;;;;;;;;;5009974;28;20037;-71
2021/07/27 14:35:56;;;;;;;32.30;4.78;;;;;;;;;;5012019;28;20084;-71
2021/07/27 14:38:22;;;;;;;24.63;5.63;;;;;;;;;;4994438;28;20401;-71
2021/07/27 14:40:50;;;;;;;30.02;4.97;;;;;;;;;;4994530;28;20073;-71
2021/07/27 14:43:15;;;;;;;20.45;4.45;;;;;;;;;;4995658;28;20025;-71
2021/07/27 14:45:41;;;;;;;21.40;4.30;;;;;;;;;;5012339;28;20072;-71
2021/07/27 14:48:06;;;;;;;25.67;4.75;;;;;;;;;;5014212;28;20022;-71